Time;durP1;ratioP1;P1;durP2;ratioP2;P2;SDS_P1;SDS_P2;PMS_P1;PMS_P2;Temp;Humidity;BMP_temperature;BMP_pressure;BME280_temperature;BME280_humidity;BME280_pressure;Samples;Min_cycle;Max_cycle;Signal;HPM_P1;HPM_P2
2021/08/26 00:07:36;;;;;;;3.08;1.80;;;15.50;99.90;;;;;;4986492;28;20037;-72
2021/08/26 00:10:06;;;;;;;3.95;1.90;;;15.50;99.90;;;;;;4989902;28;20117;-72
2021/08/26 00:12:33;;;;;;;3.55;1.65;;;15.50;99.90;;;;;;4991502;28;20053;-72
2021/08/26 00:15:00;;;;;;;3.78;1.90;;;15.50;99.90;;;;;;4988980;28;20093;-72
2021/08/26 00:17:25;;;;;;;3.08;2.10;;;15.50;99.90;;;;;;4988194;28;20042;-72
2021/08/26 00:19:53;;;;;;;3.65;2.05;;;15.50;99.90;;;;;;4990011;28;20424;-72
2021/08/26 00:22:27;;;;;;;6.32;1.88;;;15.50;99.90;;;;;;4989887;28;20065;-72
2021/08/26 00:24:53;;;;;;;4.28;2.13;;;15.50;99.90;;;;;;4992345;28;20042;-72
2021/08/26 00:27:18;;;;;;;3.38;1.90;;;15.50;99.90;;;;;;4993788;28;20022;-72
2021/08/26 00:29:44;;;;;;;4.93;1.90;;;15.50;99.90;;;;;;4993575;28;20087;-72
2021/08/26 00:32:09;;;;;;;7.07;2.33;;;15.50;99.90;;;;;;4985166;28;20030;-72
2021/08/26 00:34:35;;;;;;;4.05;1.92;;;15.50;99.90;;;;;;4993750;28;20049;-71
2021/08/26 00:37:03;;;;;;;8.50;2.28;;;15.50;99.90;;;;;;4991098;28;20101;-72
2021/08/26 00:39:29;;;;;;;7.20;1.85;;;15.50;99.90;;;;;;4990925;28;20069;-72
2021/08/26 00:41:54;;;;;;;5.78;1.92;;;15.40;99.90;;;;;;4982782;28;20484;-72
2021/08/26 00:44:20;;;;;;;5.40;2.30;;;15.40;99.90;;;;;;4993310;28;20030;-72
2021/08/26 00:46:47;;;;;;;8.55;2.45;;;15.40;99.90;;;;;;4998447;28;20037;-72
2021/08/26 00:49:17;;;;;;;7.55;2.05;;;15.40;99.90;;;;;;4992251;28;20058;-72
2021/08/26 00:51:44;;;;;;;10.02;2.50;;;15.40;99.90;;;;;;4990946;28;20484;-72
2021/08/26 00:54:22;;;;;;;5.75;2.58;;;15.40;99.90;;;;;;4988268;28;20475;-71
2021/08/26 00:56:48;;;;;;;12.10;2.50;;;15.40;99.90;;;;;;4995783;28;20026;-72
2021/08/26 00:59:14;;;;;;;5.20;2.45;;;15.40;99.90;;;;;;4988751;28;20567;-72
2021/08/26 01:02:04;;;;;;;5.47;2.08;;;15.40;99.90;;;;;;4983508;28;20037;-71
2021/08/26 01:04:49;;;;;;;6.35;2.47;;;15.40;99.90;;;;;;4995134;28;20129;-72
2021/08/26 01:07:23;;;;;;;6.03;2.80;;;15.30;99.90;;;;;;4991780;28;20034;-72
2021/08/26 01:09:58;;;;;;;8.43;2.88;;;15.30;99.90;;;;;;4989777;28;20392;-72
2021/08/26 01:12:26;;;;;;;4.60;2.35;;;15.30;99.90;;;;;;4983813;28;20034;-73
2021/08/26 01:14:51;;;;;;;11.55;3.63;;;15.30;99.90;;;;;;4993827;28;20030;-72
2021/08/26 01:17:22;;;;;;;9.02;2.40;;;15.30;99.90;;;;;;4991711;28;20157;-72
2021/08/26 01:19:52;;;;;;;10.20;3.00;;;15.20;99.90;;;;;;4990591;28;20035;-72
2021/08/26 01:22:19;;;;;;;5.97;2.47;;;15.20;99.90;;;;;;4987249;28;20073;-72
2021/08/26 01:24:58;;;;;;;8.00;2.78;;;15.20;99.90;;;;;;4996641;28;20061;-72
2021/08/26 01:27:28;;;;;;;10.85;3.00;;;15.30;99.90;;;;;;4989607;28;20027;-72
2021/08/26 01:29:55;;;;;;;4.43;2.33;;;15.20;99.90;;;;;;4990980;28;20042;-73
2021/08/26 01:32:22;;;;;;;7.22;2.42;;;15.20;99.90;;;;;;4984925;28;20029;-72
2021/08/26 01:34:52;;;;;;;6.13;2.72;;;15.20;99.90;;;;;;4991309;28;20061;-72
2021/08/26 01:37:19;;;;;;;6.10;2.80;;;15.20;99.90;;;;;;4981001;28;20023;-72
2021/08/26 01:39:49;;;;;;;6.93;2.50;;;15.20;99.90;;;;;;4988315;28;20042;-72
2021/08/26 01:42:15;;;;;;;6.70;2.70;;;15.20;99.90;;;;;;4990082;28;20093;-72
2021/08/26 01:44:41;;;;;;;10.40;2.60;;;15.20;99.90;;;;;;4991567;28;20034;-72
2021/08/26 01:47:09;;;;;;;10.88;2.50;;;15.20;99.90;;;;;;4992272;28;20042;-72
2021/08/26 01:49:35;;;;;;;7.18;2.38;;;15.20;99.90;;;;;;4989428;28;20117;-73
2021/08/26 01:52:10;;;;;;;4.88;2.58;;;15.20;99.90;;;;;;4984201;28;20641;-73
2021/08/26 01:54:36;;;;;;;4.07;2.50;;;15.20;99.90;;;;;;4988940;28;20116;-72
2021/08/26 01:57:02;;;;;;;8.10;2.53;;;15.20;99.90;;;;;;4989911;28;20122;-72
2021/08/26 01:59:28;;;;;;;10.05;2.83;;;15.20;99.90;;;;;;4988871;28;20022;-72
2021/08/26 02:01:53;;;;;;;8.13;2.50;;;15.20;99.90;;;;;;4997998;28;20625;-72
2021/08/26 02:04:19;;;;;;;8.38;2.70;;;15.10;99.90;;;;;;4985260;28;21871;-72
2021/08/26 02:06:44;;;;;;;12.48;2.53;;;15.10;99.90;;;;;;4989150;28;20484;-72
2021/08/26 02:09:10;;;;;;;9.95;2.83;;;15.10;99.90;;;;;;4991640;28;20173;-73
2021/08/26 02:11:35;;;;;;;9.48;2.97;;;15.10;99.90;;;;;;4987758;28;20103;-73
2021/08/26 02:14:00;;;;;;;9.40;2.65;;;15.10;99.90;;;;;;4990191;28;20503;-72
2021/08/26 02:16:26;;;;;;;17.77;4.28;;;15.10;99.90;;;;;;4992254;28;20093;-72
2021/08/26 02:18:51;;;;;;;9.00;2.78;;;15.10;99.90;;;;;;4989580;28;20022;-72
2021/08/26 02:21:17;;;;;;;6.55;3.10;;;15.10;99.90;;;;;;4992804;28;20030;-72
2021/08/26 02:23:42;;;;;;;9.90;3.05;;;15.10;99.90;;;;;;4984763;28;20022;-72
2021/08/26 02:26:08;;;;;;;8.45;3.13;;;15.10;99.90;;;;;;4986293;28;20532;-73
2021/08/26 02:28:34;;;;;;;11.70;3.13;;;15.10;99.90;;;;;;4989605;28;20024;-72
2021/08/26 02:30:59;;;;;;;8.25;3.08;;;15.00;99.90;;;;;;4987684;28;20046;-72
2021/08/26 02:33:31;;;;;;;11.77;3.03;;;15.00;99.90;;;;;;4987671;28;20026;-72
2021/08/26 02:35:56;;;;;;;12.35;2.95;;;15.00;99.90;;;;;;4992206;28;20026;-72
2021/08/26 02:38:22;;;;;;;4.95;2.72;;;15.00;99.90;;;;;;4988222;28;20025;-72
2021/08/26 02:40:47;;;;;;;10.50;3.15;;;14.90;99.90;;;;;;4987580;28;20031;-72
2021/08/26 02:43:13;;;;;;;9.52;2.75;;;14.90;99.90;;;;;;4988687;28;20034;-72
2021/08/26 02:45:39;;;;;;;12.88;3.40;;;14.90;99.90;;;;;;4989657;28;20080;-72
2021/08/26 02:48:05;;;;;;;8.52;3.10;;;14.90;99.90;;;;;;4988888;28;20034;-73
2021/08/26 02:50:30;;;;;;;11.48;2.92;;;14.90;99.90;;;;;;4990572;28;20049;-72
2021/08/26 02:52:56;;;;;;;11.05;3.22;;;14.90;99.90;;;;;;4989104;28;20038;-72
2021/08/26 02:55:27;;;;;;;7.43;3.05;;;15.00;99.90;;;;;;4983595;28;20074;-72
2021/08/26 02:57:53;;;;;;;11.02;3.03;;;14.90;99.90;;;;;;4988678;28;20036;-72
2021/08/26 03:00:18;;;;;;;8.32;3.05;;;14.90;99.90;;;;;;4989230;28;20034;-72
2021/08/26 03:02:44;;;;;;;8.90;3.20;;;14.90;99.90;;;;;;4991322;28;20037;-71
2021/08/26 03:05:09;;;;;;;10.27;2.97;;;14.90;99.90;;;;;;4988885;28;20428;-72
2021/08/26 03:07:35;;;;;;;8.27;3.20;;;14.90;99.90;;;;;;4985397;28;20179;-72
2021/08/26 03:10:00;;;;;;;7.68;3.35;;;14.90;99.90;;;;;;4992271;28;20545;-71
2021/08/26 03:12:26;;;;;;;8.65;2.90;;;14.90;99.90;;;;;;4984827;28;20105;-72
2021/08/26 03:14:51;;;;;;;7.50;3.03;;;14.90;99.90;;;;;;4990155;28;20030;-72
2021/08/26 03:17:16;;;;;;;11.75;2.83;;;14.90;99.90;;;;;;4989727;28;20015;-72
2021/08/26 03:19:42;;;;;;;10.95;3.35;;;14.80;99.90;;;;;;4992268;28;20102;-72
2021/08/26 03:22:07;;;;;;;10.13;3.55;;;14.90;99.90;;;;;;4992683;28;20031;-72
2021/08/26 03:24:33;;;;;;;15.45;3.67;;;14.90;99.90;;;;;;4988938;28;20044;-72
2021/08/26 03:26:58;;;;;;;16.65;3.53;;;14.90;99.90;;;;;;4991045;28;20026;-72
2021/08/26 03:29:24;;;;;;;7.25;3.42;;;14.90;99.90;;;;;;4998106;28;20832;-72
2021/08/26 03:31:49;;;;;;;8.00;2.78;;;14.90;99.90;;;;;;4995685;28;20080;-72
2021/08/26 03:34:15;;;;;;;10.38;3.55;;;14.90;99.90;;;;;;4987653;28;20941;-72
2021/08/26 03:36:40;;;;;;;9.95;3.20;;;14.90;99.90;;;;;;4990378;28;20026;-72
2021/08/26 03:39:06;;;;;;;13.05;3.47;;;14.80;99.90;;;;;;4986831;28;20513;-72
2021/08/26 03:41:31;;;;;;;13.05;3.70;;;14.80;99.90;;;;;;4987425;28;20022;-72
2021/08/26 03:43:57;;;;;;;14.88;3.53;;;14.90;99.90;;;;;;4983454;28;20034;-71
2021/08/26 03:46:22;;;;;;;11.90;3.17;;;14.80;99.90;;;;;;4988384;28;20034;-72
2021/08/26 03:48:47;;;;;;;9.30;3.55;;;14.90;99.90;;;;;;4981895;28;20038;-72
2021/08/26 03:51:13;;;;;;;8.85;3.67;;;14.80;99.90;;;;;;4988699;28;20492;-72
2021/08/26 03:53:38;;;;;;;15.05;4.13;;;14.80;99.90;;;;;;4991316;28;20018;-72
2021/08/26 03:56:06;;;;;;;11.00;3.33;;;14.70;99.90;;;;;;4997036;28;20117;-71
2021/08/26 03:58:32;;;;;;;12.82;3.85;;;14.80;99.90;;;;;;4991867;28;20393;-72
2021/08/26 04:00:59;;;;;;;11.20;3.50;;;14.70;99.90;;;;;;4990725;28;20487;-72
2021/08/26 04:03:24;;;;;;;9.40;3.88;;;14.80;99.90;;;;;;4990493;28;20084;-72
2021/08/26 04:05:50;;;;;;;12.70;5.25;;;14.80;99.90;;;;;;4991998;28;20156;-72
2021/08/26 04:08:15;;;;;;;18.48;3.83;;;14.80;99.90;;;;;;4990757;28;20037;-71
2021/08/26 04:10:41;;;;;;;15.73;3.65;;;14.80;99.90;;;;;;4987990;28;20034;-72
2021/08/26 04:13:06;;;;;;;17.88;3.80;;;14.80;99.90;;;;;;4990426;28;20488;-72
2021/08/26 04:15:32;;;;;;;15.98;4.22;;;14.90;99.90;;;;;;4990333;28;20022;-72
2021/08/26 04:17:57;;;;;;;19.80;4.05;;;14.90;99.90;;;;;;4991686;28;20113;-72
2021/08/26 04:20:22;;;;;;;13.07;4.10;;;14.90;99.90;;;;;;4996964;28;20117;-71
2021/08/26 04:22:49;;;;;;;21.83;4.47;;;14.80;99.90;;;;;;4997356;28;20038;-71
2021/08/26 04:25:14;;;;;;;12.82;3.95;;;14.80;99.90;;;;;;4991099;28;20033;-72
2021/08/26 04:27:40;;;;;;;16.50;4.50;;;14.80;99.90;;;;;;4989857;28;20117;-70
2021/08/26 04:30:06;;;;;;;16.83;4.05;;;14.80;99.90;;;;;;4993094;28;20033;-72
2021/08/26 04:32:32;;;;;;;18.02;4.13;;;14.80;99.90;;;;;;4992107;28;20085;-72
2021/08/26 04:34:57;;;;;;;14.45;4.68;;;14.80;99.90;;;;;;4991134;28;20042;-71
2021/08/26 04:37:23;;;;;;;18.42;4.45;;;14.80;99.90;;;;;;4993546;28;20022;-71
2021/08/26 04:39:48;;;;;;;13.50;4.43;;;14.70;99.90;;;;;;4987586;28;20023;-71
2021/08/26 04:42:14;;;;;;;13.48;4.20;;;14.70;99.90;;;;;;4991202;28;20165;-71
2021/08/26 04:44:39;;;;;;;10.05;4.32;;;14.80;99.90;;;;;;4994473;28;20606;-71
2021/08/26 04:47:05;;;;;;;14.07;4.47;;;14.80;99.90;;;;;;4994086;28;20031;-71
2021/08/26 04:49:30;;;;;;;11.05;4.13;;;14.70;99.90;;;;;;4988855;28;20026;-71
2021/08/26 04:51:56;;;;;;;14.90;4.35;;;14.70;99.90;;;;;;4990506;28;21920;-71
2021/08/26 04:54:21;;;;;;;17.02;4.82;;;14.80;99.90;;;;;;4989616;28;20030;-71
2021/08/26 04:56:47;;;;;;;16.27;5.68;;;14.80;99.90;;;;;;4990662;28;20043;-70
2021/08/26 04:59:12;;;;;;;17.17;4.85;;;14.80;99.90;;;;;;4991101;28;20029;-71
2021/08/26 05:01:38;;;;;;;17.40;5.25;;;14.80;99.90;;;;;;4989419;28;20169;-71
2021/08/26 05:04:04;;;;;;;9.38;4.07;;;14.80;99.90;;;;;;4986002;28;20050;-71
2021/08/26 05:06:34;;;;;;;15.27;4.70;;;14.80;99.90;;;;;;4990067;28;20500;-72
2021/08/26 05:08:59;;;;;;;12.50;4.07;;;14.90;99.90;;;;;;4990363;28;20031;-72
2021/08/26 05:11:25;;;;;;;20.55;4.32;;;14.80;99.90;;;;;;4982969;28;20388;-72
2021/08/26 05:13:51;;;;;;;15.93;4.13;;;14.80;99.90;;;;;;4987719;28;20030;-72
2021/08/26 05:16:16;;;;;;;16.17;4.75;;;14.80;99.90;;;;;;4984021;28;20030;-72
2021/08/26 05:18:42;;;;;;;13.98;3.67;;;14.80;99.90;;;;;;4985213;28;20495;-72
2021/08/26 05:21:07;;;;;;;14.38;4.57;;;14.80;99.90;;;;;;4990091;28;20037;-72
2021/08/26 05:23:34;;;;;;;16.85;4.20;;;14.90;99.90;;;;;;4983645;28;20031;-72
2021/08/26 05:25:59;;;;;;;13.80;3.95;;;14.90;99.90;;;;;;4986693;28;20034;-73
2021/08/26 05:28:25;;;;;;;17.40;4.88;;;14.90;99.90;;;;;;4990279;28;20088;-71
2021/08/26 05:30:50;;;;;;;14.18;4.80;;;14.90;99.90;;;;;;4990112;28;20030;-71
2021/08/26 05:33:16;;;;;;;12.35;4.18;;;14.90;99.90;;;;;;4989048;28;20040;-71
2021/08/26 05:35:41;;;;;;;21.77;4.40;;;14.90;99.90;;;;;;4995119;28;20030;-70
2021/08/26 05:38:07;;;;;;;14.00;3.92;;;14.90;99.90;;;;;;4983108;28;20035;-70
2021/08/26 05:40:32;;;;;;;16.60;4.43;;;14.90;99.90;;;;;;4988622;28;20030;-71
2021/08/26 05:42:58;;;;;;;14.18;4.10;;;15.00;99.90;;;;;;4985186;28;20141;-71
2021/08/26 05:45:23;;;;;;;13.75;4.03;;;14.90;99.90;;;;;;4989980;28;20033;-71
2021/08/26 05:47:54;;;;;;;15.00;4.38;;;15.00;99.90;;;;;;4989452;28;20604;-70
2021/08/26 05:50:23;;;;;;;24.60;5.50;;;14.90;99.90;;;;;;4989609;28;20035;-71
2021/08/26 05:52:50;;;;;;;14.27;4.32;;;14.90;99.90;;;;;;4986715;28;20396;-71
2021/08/26 05:55:28;;;;;;;14.30;4.22;;;14.90;99.90;;;;;;4996352;28;20558;-72
2021/08/26 05:57:54;;;;;;;18.58;4.68;;;15.00;99.90;;;;;;4986200;28;20152;-69
2021/08/26 06:00:20;;;;;;;18.55;4.50;;;15.00;99.90;;;;;;4983466;28;20503;-69
2021/08/26 06:02:45;;;;;;;15.75;4.30;;;15.00;99.90;;;;;;4982960;28;20389;-70
2021/08/26 06:05:11;;;;;;;15.73;4.50;;;15.00;99.90;;;;;;4995770;28;20041;-69
2021/08/26 06:07:38;;;;;;;15.25;5.28;;;15.00;99.90;;;;;;4978826;28;20089;-70
2021/08/26 06:10:05;;;;;;;12.82;4.40;;;15.10;99.90;;;;;;4974112;28;20154;-70
2021/08/26 06:12:31;;;;;;;12.90;5.03;;;15.20;99.90;;;;;;4978885;28;20046;-69
2021/08/26 06:14:56;;;;;;;14.98;5.40;;;15.20;99.90;;;;;;4988956;28;20096;-70
2021/08/26 06:17:22;;;;;;;20.38;5.22;;;15.20;99.90;;;;;;4989559;28;20030;-70
2021/08/26 06:19:47;;;;;;;17.42;5.38;;;15.20;99.90;;;;;;4989854;28;20030;-70
2021/08/26 06:22:12;;;;;;;19.35;5.63;;;15.20;99.90;;;;;;4988869;28;20120;-69
2021/08/26 06:24:38;;;;;;;18.10;5.00;;;15.20;99.90;;;;;;4986587;28;20069;-70
2021/08/26 06:27:03;;;;;;;18.02;4.30;;;15.20;99.90;;;;;;4983323;28;20478;-70
2021/08/26 06:29:29;;;;;;;17.20;5.13;;;15.30;99.90;;;;;;4984341;28;20116;-70
2021/08/26 06:31:55;;;;;;;20.38;5.07;;;15.40;99.90;;;;;;4991090;28;20117;-69
2021/08/26 06:34:20;;;;;;;13.05;4.90;;;15.50;99.90;;;;;;4990262;28;20305;-69
2021/08/26 06:36:46;;;;;;;17.60;4.95;;;15.50;99.90;;;;;;4992431;28;20671;-69
2021/08/26 06:39:11;;;;;;;15.68;4.82;;;15.50;99.90;;;;;;4988332;28;20069;-70
2021/08/26 06:41:36;;;;;;;15.50;4.78;;;15.60;99.90;;;;;;4986810;28;20413;-72
2021/08/26 06:44:03;;;;;;;18.20;4.75;;;15.60;99.90;;;;;;4977014;28;20029;-71
2021/08/26 06:46:28;;;;;;;20.13;4.63;;;15.60;99.90;;;;;;4990001;28;20057;-71
2021/08/26 06:48:55;;;;;;;19.85;5.20;;;15.50;99.90;;;;;;4988004;28;20055;-70
2021/08/26 06:51:21;;;;;;;11.52;4.40;;;15.40;99.90;;;;;;4988397;28;20109;-73
2021/08/26 06:53:50;;;;;;;20.13;5.15;;;15.40;99.90;;;;;;4987877;28;20109;-82
2021/08/26 06:56:16;;;;;;;17.42;4.90;;;15.40;99.90;;;;;;4983141;28;20637;-72
2021/08/26 06:58:41;;;;;;;15.25;4.00;;;15.40;99.90;;;;;;4987555;28;20034;-71
2021/08/26 07:01:07;;;;;;;14.75;5.00;;;15.40;99.90;;;;;;4982915;28;20368;-72
2021/08/26 07:03:33;;;;;;;19.63;4.88;;;15.60;99.90;;;;;;4987352;28;20456;-71
2021/08/26 07:05:58;;;;;;;11.82;3.95;;;15.60;99.90;;;;;;4985954;28;20191;-72
2021/08/26 07:08:30;;;;;;;12.27;3.25;;;15.80;99.90;;;;;;4987920;28;20066;-71
2021/08/26 07:10:56;;;;;;;17.08;3.58;;;15.90;99.90;;;;;;4986829;28;20034;-71
2021/08/26 07:13:21;;;;;;;13.25;3.25;;;16.00;99.90;;;;;;4984326;28;20110;-71
2021/08/26 07:15:47;;;;;;;12.52;3.40;;;16.10;99.90;;;;;;4980517;28;20551;-71
2021/08/26 07:18:14;;;;;;;11.05;3.50;;;16.20;99.90;;;;;;4975351;28;20291;-72
2021/08/26 07:20:40;;;;;;;15.10;4.18;;;16.20;99.90;;;;;;4973080;28;20035;-71
2021/08/26 07:23:05;;;;;;;14.80;2.95;;;16.10;99.90;;;;;;4981702;28;20026;-71
2021/08/26 07:25:31;;;;;;;19.52;3.55;;;16.10;99.90;;;;;;4979349;28;20038;-71
2021/08/26 07:27:56;;;;;;;8.70;2.88;;;16.10;99.90;;;;;;4983868;28;20026;-72
2021/08/26 07:30:21;;;;;;;9.13;2.85;;;16.10;99.90;;;;;;4991229;28;20092;-71
2021/08/26 07:32:49;;;;;;;10.73;2.70;;;16.10;99.90;;;;;;4989394;28;20038;-72
2021/08/26 07:35:15;;;;;;;11.13;2.58;;;16.10;99.90;;;;;;4983236;28;20184;-71
2021/08/26 07:37:40;;;;;;;8.18;2.47;;;16.00;99.90;;;;;;4988409;28;20447;-71
2021/08/26 07:40:06;;;;;;;7.95;2.42;;;16.00;99.90;;;;;;4990405;28;20034;-71
2021/08/26 07:42:31;;;;;;;9.40;2.08;;;16.10;99.90;;;;;;4995082;28;20145;-71
2021/08/26 07:45:02;;;;;;;6.80;2.50;;;16.20;99.90;;;;;;4989901;28;20022;-71
2021/08/26 07:47:29;;;;;;;6.90;2.08;;;16.20;99.90;;;;;;4987195;28;20524;-71
2021/08/26 07:49:55;;;;;;;7.53;2.20;;;16.40;99.90;;;;;;4976686;28;20109;-71
2021/08/26 07:52:20;;;;;;;7.53;1.90;;;16.60;99.90;;;;;;4979782;28;20030;-71
2021/08/26 07:54:46;;;;;;;3.30;1.48;;;16.80;99.90;;;;;;4994994;28;20694;-71
2021/08/26 07:57:11;;;;;;;4.95;1.58;;;16.90;99.90;;;;;;4987597;28;20038;-72
2021/08/26 07:59:37;;;;;;;10.38;2.30;;;17.00;99.90;;;;;;4978309;28;20027;-71
2021/08/26 08:02:02;;;;;;;3.80;1.70;;;17.00;99.90;;;;;;4985224;28;20076;-71
2021/08/26 08:04:28;;;;;;;6.55;1.58;;;17.00;99.90;;;;;;4986408;28;20057;-71
2021/08/26 08:06:53;;;;;;;6.93;1.80;;;17.00;99.90;;;;;;4988599;28;20400;-71
2021/08/26 08:09:19;;;;;;;5.32;1.60;;;17.00;99.90;;;;;;4988529;28;20026;-71
2021/08/26 08:11:44;;;;;;;7.75;1.75;;;17.00;99.90;;;;;;4987939;28;20045;-71
2021/08/26 08:14:10;;;;;;;4.22;1.50;;;16.80;99.90;;;;;;4988166;28;20432;-71
2021/08/26 08:16:35;;;;;;;5.05;1.17;;;16.80;99.90;;;;;;4972941;28;20038;-74
2021/08/26 08:19:02;;;;;;;4.78;1.80;;;16.90;99.90;;;;;;4986809;28;20043;-71
2021/08/26 08:21:27;;;;;;;7.43;1.40;;;17.10;99.90;;;;;;4969084;28;20027;-71
2021/08/26 08:23:53;;;;;;;4.63;1.38;;;17.20;99.90;;;;;;4982949;28;20023;-72
2021/08/26 08:26:18;;;;;;;3.65;1.60;;;17.40;99.90;;;;;;4985777;28;20034;-71
2021/08/26 08:28:44;;;;;;;5.47;1.67;;;17.60;99.90;;;;;;4979730;28;20025;-71
2021/08/26 08:31:09;;;;;;;7.22;1.63;;;17.70;99.90;;;;;;4982867;28;20440;-71
2021/08/26 08:33:35;;;;;;;5.53;1.38;;;17.70;99.90;;;;;;4982488;28;20778;-71
2021/08/26 08:36:01;;;;;;;5.70;1.60;;;17.70;99.90;;;;;;4983127;28;20039;-72
2021/08/26 08:38:26;;;;;;;5.90;1.50;;;17.60;99.90;;;;;;4989191;28;20022;-71
2021/08/26 08:40:52;;;;;;;5.57;1.80;;;17.40;99.90;;;;;;4988508;28;20034;-71
2021/08/26 08:43:17;;;;;;;4.22;1.27;;;17.00;99.90;;;;;;4986835;28;20034;-71
2021/08/26 08:45:46;;;;;;;4.75;1.60;;;16.60;99.90;;;;;;4982858;28;20692;-71
2021/08/26 08:48:13;;;;;;;4.47;1.33;;;16.40;99.90;;;;;;4990030;28;20542;-71
2021/08/26 08:50:41;;;;;;;3.72;1.50;;;16.20;99.90;;;;;;4985926;28;20039;-71
2021/08/26 08:53:12;;;;;;;4.15;1.20;;;16.00;99.90;;;;;;4990043;28;20370;-71
2021/08/26 08:55:40;;;;;;;3.60;1.10;;;15.80;99.90;;;;;;4985322;28;20153;-71
2021/08/26 08:58:06;;;;;;;2.85;1.02;;;15.70;99.90;;;;;;4988525;28;20050;-71
2021/08/26 09:00:31;;;;;;;3.20;1.25;;;15.60;99.90;;;;;;4986802;28;20433;-71
2021/08/26 09:02:57;;;;;;;4.47;0.93;;;15.70;99.90;;;;;;4990005;28;20408;-71
2021/08/26 09:05:22;;;;;;;4.30;1.17;;;15.80;99.90;;;;;;4982703;28;20377;-71
2021/08/26 09:07:48;;;;;;;4.20;1.00;;;15.90;99.90;;;;;;4983758;28;20018;-71
2021/08/26 09:10:13;;;;;;;3.90;0.95;;;16.20;99.90;;;;;;4982055;28;20027;-71
2021/08/26 09:12:43;;;;;;;2.13;1.10;;;16.40;99.90;;;;;;4987019;28;20033;-72
2021/08/26 09:15:15;;;;;;;3.55;1.42;;;16.60;99.90;;;;;;4987100;28;20527;-71
2021/08/26 09:17:41;;;;;;;2.30;1.40;;;16.70;99.90;;;;;;4983400;28;20050;-71
2021/08/26 09:20:09;;;;;;;2.22;0.98;;;16.80;99.90;;;;;;4987783;28;20035;-71
2021/08/26 09:22:35;;;;;;;3.75;1.23;;;16.80;99.90;;;;;;4988680;28;20029;-72
2021/08/26 09:25:01;;;;;;;4.03;1.50;;;16.80;99.90;;;;;;4984820;28;20035;-72
2021/08/26 09:27:33;;;;;;;6.50;1.27;;;16.90;99.90;;;;;;4983202;28;20038;-71
2021/08/26 09:30:03;;;;;;;2.22;1.23;;;16.90;99.90;;;;;;4991121;28;20026;-71
2021/08/26 09:32:34;;;;;;;3.40;1.38;;;16.80;99.90;;;;;;4989663;28;20476;-72
2021/08/26 09:35:21;;;;;;;2.47;1.20;;;16.70;99.90;;;;;;4985759;28;20035;-71
2021/08/26 09:37:48;;;;;;;3.90;1.40;;;16.70;99.90;;;;;;4987113;28;20449;-71
2021/08/26 09:40:16;;;;;;;5.75;1.30;;;16.70;99.90;;;;;;4990025;28;20030;-72
2021/08/26 09:42:41;;;;;;;12.10;1.10;;;16.50;99.90;;;;;;4985176;28;20076;-71
2021/08/26 09:45:28;;;;;;;4.38;1.08;;;16.60;99.90;;;;;;4987235;28;20030;-71
2021/08/26 09:48:05;;;;;;;4.28;1.08;;;16.60;99.90;;;;;;4986293;28;20035;-71
2021/08/26 09:50:51;;;;;;;1.13;0.70;;;16.70;99.90;;;;;;4984261;28;20081;-71
2021/08/26 09:53:19;;;;;;;2.38;0.90;;;16.70;99.90;;;;;;4985656;28;20030;-71
2021/08/26 09:55:54;;;;;;;5.53;1.10;;;16.70;99.90;;;;;;4987124;28;20045;-71
2021/08/26 09:58:22;;;;;;;1.55;0.70;;;16.60;99.90;;;;;;4983655;28;20146;-71
2021/08/26 10:00:49;;;;;;;2.83;0.60;;;16.60;99.90;;;;;;4983441;28;20014;-73
2021/08/26 10:03:16;;;;;;;7.05;0.70;;;16.80;99.90;;;;;;4989163;28;20060;-71
2021/08/26 10:05:43;;;;;;;1.95;0.77;;;17.00;99.90;;;;;;4979429;28;20101;-73
2021/08/26 10:08:10;;;;;;;0.65;0.50;;;17.30;99.90;;;;;;4984893;28;20034;-73
2021/08/26 10:10:38;;;;;;;2.60;0.50;;;17.40;99.90;;;;;;4993535;28;20030;-73
2021/08/26 10:13:04;;;;;;;4.43;0.60;;;17.80;99.90;;;;;;4989550;28;20174;-72
2021/08/26 10:15:29;;;;;;;3.00;1.17;;;18.00;99.90;;;;;;4984739;28;20113;-72
2021/08/26 10:17:55;;;;;;;5.13;0.93;;;18.10;99.90;;;;;;4975925;28;20037;-72
2021/08/26 10:20:22;;;;;;;1.55;0.63;;;18.10;99.90;;;;;;4989984;28;20030;-72
2021/08/26 10:22:48;;;;;;;1.02;0.60;;;18.00;99.90;;;;;;4988629;28;20389;-72
2021/08/26 10:25:14;;;;;;;1.45;0.60;;;17.90;99.90;;;;;;4987446;28;20058;-72
2021/08/26 10:28:01;;;;;;;0.50;0.50;;;18.00;99.90;;;;;;4982720;28;20033;-71
2021/08/26 10:30:32;;;;;;;1.25;0.40;;;18.20;99.90;;;;;;4986953;28;20112;-72
2021/08/26 10:33:16;;;;;;;1.08;0.50;;;18.10;99.80;;;;;;4991061;28;20180;-71
2021/08/26 10:35:50;;;;;;;3.15;0.55;;;17.90;99.90;;;;;;4988979;28;20034;-72
2021/08/26 10:38:28;;;;;;;0.65;0.60;;;17.90;99.90;;;;;;4981578;28;20893;-72
2021/08/26 10:40:59;;;;;;;2.35;0.43;;;18.00;99.90;;;;;;4987673;28;20119;-72
2021/08/26 10:43:39;;;;;;;4.97;0.63;;;18.10;99.90;;;;;;4989290;28;20113;-72
2021/08/26 10:46:09;;;;;;;0.45;0.45;;;18.10;99.90;;;;;;4986575;28;20381;-72
2021/08/26 10:48:37;;;;;;;0.57;0.30;;;18.30;99.90;;;;;;4989027;28;20038;-71
2021/08/26 10:51:14;;;;;;;0.40;0.30;;;18.60;96.50;;;;;;4989347;28;20055;-72
2021/08/26 10:53:43;;;;;;;5.57;0.40;;;18.70;96.20;;;;;;4987388;28;20444;-73
2021/08/26 10:56:16;;;;;;;1.55;0.50;;;18.60;94.90;;;;;;4988955;28;20034;-72
2021/08/26 10:58:42;;;;;;;1.15;0.43;;;18.60;94.20;;;;;;4987032;28;20443;-72
2021/08/26 11:01:09;;;;;;;1.65;0.50;;;18.50;94.60;;;;;;4988770;28;20077;-72
2021/08/26 11:03:34;;;;;;;0.80;0.45;;;18.50;96.10;;;;;;4988898;28;20047;-72
2021/08/26 11:06:24;;;;;;;0.88;0.40;;;18.50;96.90;;;;;;4984818;28;20451;-72
2021/08/26 11:08:52;;;;;;;0.88;0.43;;;18.90;95.60;;;;;;4988427;28;20105;-72
2021/08/26 11:11:27;;;;;;;1.63;0.35;;;19.20;94.40;;;;;;4984678;28;20829;-72
2021/08/26 11:13:59;;;;;;;0.20;0.15;;;19.70;95.60;;;;;;4989014;28;20233;-72
2021/08/26 11:16:24;;;;;;;1.65;0.50;;;20.20;90.90;;;;;;4988839;28;20118;-71
2021/08/26 11:18:51;;;;;;;0.50;0.40;;;20.40;88.60;;;;;;4980798;28;20524;-73
2021/08/26 11:21:55;;;;;;;2.22;0.40;;;20.40;83.50;;;;;;4986748;28;20109;-72
2021/08/26 11:24:25;;;;;;;0.20;0.20;;;20.50;84.10;;;;;;4976848;28;20023;-72
2021/08/26 11:27:04;;;;;;;1.63;0.43;;;20.80;84.50;;;;;;4987927;28;20026;-73
2021/08/26 11:29:29;;;;;;;1.27;0.50;;;21.20;83.30;;;;;;4989755;28;20487;-72
2021/08/26 11:31:55;;;;;;;1.13;0.63;;;21.70;80.70;;;;;;4987075;28;20027;-71
2021/08/26 11:34:32;;;;;;;0.75;0.40;;;22.10;81.50;;;;;;4987921;28;20026;-72
2021/08/26 11:36:59;;;;;;;1.13;0.60;;;21.90;73.20;;;;;;4987791;28;20034;-72
2021/08/26 11:39:27;;;;;;;0.38;0.30;;;21.40;79.50;;;;;;4987930;28;20240;-72
2021/08/26 11:41:52;;;;;;;0.98;0.40;;;21.00;82.50;;;;;;4987331;28;20052;-72
2021/08/26 11:44:18;;;;;;;0.55;0.50;;;20.90;83.00;;;;;;4988136;28;20031;-72
2021/08/26 11:46:44;;;;;;;1.60;0.50;;;21.20;82.80;;;;;;4988178;28;20027;-72
2021/08/26 11:49:09;;;;;;;0.98;0.30;;;21.10;78.30;;;;;;4981886;28;20033;-72
2021/08/26 11:51:35;;;;;;;1.40;0.57;;;20.60;79.60;;;;;;4988649;28;20029;-72
2021/08/26 11:54:20;;;;;;;0.35;0.30;;;20.10;79.90;;;;;;4976624;28;20468;-72
2021/08/26 11:56:49;;;;;;;0.95;0.30;;;19.60;81.20;;;;;;4987597;28;20022;-71
2021/08/26 11:59:35;;;;;;;1.02;0.40;;;19.10;84.80;;;;;;4981694;28;20026;-71
2021/08/26 12:02:21;;;;;;;0.30;0.30;;;19.00;89.70;;;;;;4987737;28;20026;-72
2021/08/26 12:05:11;;;;;;;0.40;0.40;;;18.90;91.90;;;;;;4988183;28;20208;-71
2021/08/26 12:07:40;;;;;;;1.25;0.40;;;18.80;91.80;;;;;;4981423;28;20039;-71
2021/08/26 12:10:21;;;;;;;0.40;0.30;;;18.70;93.20;;;;;;4986700;28;20034;-72
2021/08/26 12:12:56;;;;;;;3.80;0.65;;;18.60;93.40;;;;;;4981244;28;20043;-72
2021/08/26 12:15:49;;;;;;;0.30;0.30;;;18.60;94.40;;;;;;4972677;28;20081;-73
2021/08/26 12:18:17;;;;;;;0.20;0.20;;;18.60;93.20;;;;;;4988575;28;20031;-72
2021/08/26 12:20:50;;;;;;;1.80;0.30;;;18.70;93.50;;;;;;4992469;28;20126;-71
2021/08/26 12:23:18;;;;;;;1.95;0.43;;;18.70;93.10;;;;;;4990733;28;20031;-72
2021/08/26 12:25:44;;;;;;;1.38;0.20;;;18.80;91.70;;;;;;4987822;28;20026;-74
2021/08/26 12:28:11;;;;;;;0.50;0.20;;;18.70;90.00;;;;;;4985126;28;20085;-74
2021/08/26 12:30:44;;;;;;;1.15;0.28;;;18.80;88.00;;;;;;4991382;28;20121;-73
2021/08/26 12:33:11;;;;;;;1.65;0.30;;;18.80;88.90;;;;;;4988406;28;20030;-73
2021/08/26 12:35:44;;;;;;;1.75;0.30;;;19.10;87.80;;;;;;4990795;28;20026;-73
2021/08/26 12:38:10;;;;;;;0.80;0.22;;;19.30;87.10;;;;;;4985919;28;20125;-73
2021/08/26 12:40:57;;;;;;;0.28;0.25;;;19.30;81.90;;;;;;4987623;28;20401;-73
2021/08/26 12:43:25;;;;;;;2.05;0.40;;;20.10;85.30;;;;;;4988536;28;20405;-73
2021/08/26 12:46:04;;;;;;;4.13;0.30;;;21.50;83.50;;;;;;4990536;28;20026;-73
2021/08/26 12:48:31;;;;;;;0.47;0.40;;;22.60;69.00;;;;;;4984562;28;20085;-73
2021/08/26 12:51:21;;;;;;;0.85;0.30;;;23.40;67.40;;;;;;4991292;28;20073;-74
2021/08/26 12:53:50;;;;;;;0.50;0.17;;;23.70;65.40;;;;;;4987086;28;20436;-74